Pagina principale
METAR-TAF:

METAR-TAF

Aeroporti :

Ferrara, Italia

latitudine: 44-50N, longitudine: 011-37E, altezza: 10 m

Osservazione

Il bollettino è stato emesso 48 minuti fa, alle 05:55 UTC
Vento 2 kt da ovest/sud-ovest
Temperature 18°C
Umidità 88%
Pressione 1005 hPa
Visibilità 10 km o più
nessuna nube inferiore a 1500 m e nessun cumulonembo

METAR: LIPF 260555Z 24002KT CAVOK 18/16 Q1005 RMK FEW FEW200 VIS MIN 9999

Ora: 08:43 (06:43 UTC)


TAF: mancante

Osservazioni e previsioni meteorologiche di più di 4000 aeroporti (messaggi METAR e TAF).

Le stazioni disponibili sono rappresentate dai dischi gialli e rossi sulla carta.

Puntare il mouse per vedere il nome della stazione.

Clicca sopra per visualizzare le osservazioni e previsioni meteorologiche.

Per cambiare la mappa : fare clic sui pulsanti verdi con una croce nera per ingrandire, il pulsante verde con un trattino per diminuire, o sulla freccia verde per le mappe adiacenti.


METAR-TAF: